createdAt,value
2022-08-05T00:02:22.836Z,100282.67
2022-08-05T00:07:58.970Z,100283.98
2022-08-05T00:12:56.589Z,100273.85
2022-08-05T00:17:59.698Z,100267.35
2022-08-05T00:23:12.894Z,100257.95
2022-08-05T00:28:16.571Z,100250.61
2022-08-05T00:34:56.864Z,100251.78
2022-08-05T00:38:55.984Z,100247.58
2022-08-05T00:44:03.031Z,100245.63
2022-08-05T00:49:06.402Z,100247.79
2022-08-05T00:54:12.645Z,100246.56
2022-08-05T00:59:15.395Z,100241.13
2022-08-05T01:04:20.339Z,100239.48
2022-08-05T01:09:30.402Z,100239.36
2022-08-05T01:14:52.238Z,100237.67
2022-08-05T01:20:02.720Z,100238.75
2022-08-05T01:25:19.234Z,100240.94
2022-08-05T01:30:34.156Z,100235.02
2022-08-05T01:35:51.557Z,100234.73
2022-08-05T01:41:01.317Z,100228.61
2022-08-05T01:46:07.183Z,100222.48
2022-08-05T01:51:20.793Z,100221.29
2022-08-05T01:58:10.721Z,100216.71
2022-08-05T02:01:52.732Z,100211.23
2022-08-05T02:06:59.090Z,100209.28
2022-08-05T02:12:33.397Z,100207.41
2022-08-05T02:18:31.263Z,100210.97
2022-08-05T02:23:12.020Z,100207.56
2022-08-05T02:28:28.431Z,100201.70
2022-08-05T02:33:38.870Z,100199.21
2022-08-05T02:38:53.438Z,100199.64
2022-08-05T02:44:02.291Z,100201.95
2022-08-05T02:49:16.842Z,100197.83
2022-08-05T02:54:36.414Z,100195.16
2022-08-05T02:59:50.425Z,100190.27
2022-08-05T03:04:57.512Z,100183.15
2022-08-05T03:10:00.544Z,100183.15
2022-08-05T03:15:09.208Z,100182.94
2022-08-05T03:20:13.602Z,100181.13
2022-08-05T03:25:33.788Z,100181.70
2022-08-05T03:30:43.074Z,100184.25
2022-08-05T03:35:47.022Z,100182.11
2022-08-05T03:40:50.311Z,100188.00
2022-08-05T03:45:57.347Z,100189.33
2022-08-05T03:52:36.959Z,100193.06
2022-08-05T03:56:44.269Z,100192.98
2022-08-05T04:01:52.151Z,100196.33
2022-08-05T04:06:56.138Z,100195.73
2022-08-05T04:11:59.975Z,100193.10
2022-08-05T04:17:03.093Z,100194.06
2022-08-05T04:22:11.975Z,100188.36
2022-08-05T04:27:15.405Z,100190.92
2022-08-05T04:32:30.584Z,100191.84
2022-08-05T04:38:02.896Z,100200.99
2022-08-05T04:42:57.056Z,100199.45
2022-08-05T04:48:10.214Z,100197.29
2022-08-05T04:53:19.728Z,100192.73
2022-08-05T04:58:23.776Z,100187.41
2022-08-05T05:03:26.928Z,100186.51
2022-08-05T05:08:44.902Z,100187.48
2022-08-05T05:13:52.897Z,100194.70
2022-08-05T05:19:18.757Z,100196.27
2022-08-05T05:24:21.918Z,100193.40
2022-08-05T05:29:24.725Z,100195.21
2022-08-05T05:34:47.671Z,100199.95
2022-08-05T05:39:55.308Z,100200.25
2022-08-05T05:44:59.481Z,100202.50
2022-08-05T05:50:04.194Z,100201.35
2022-08-05T05:55:13.577Z,100197.01
2022-08-05T06:00:20.625Z,100197.81
2022-08-05T06:05:31.916Z,100203.10
2022-08-05T06:10:37.426Z,100204.78
2022-08-05T06:16:29.706Z,100202.15
2022-08-05T06:21:18.435Z,100195.84
2022-08-05T06:26:23.942Z,100192.42
2022-08-05T06:31:30.473Z,100192.27
2022-08-05T06:36:53.511Z,100189.64
2022-08-05T06:41:58.974Z,100199.33
2022-08-05T06:47:02.385Z,100197.16
2022-08-05T06:52:05.987Z,100191.30
2022-08-05T06:57:14.055Z,100192.77
2022-08-05T07:02:32.288Z,100185.51
2022-08-05T07:07:43.693Z,100183.29
2022-08-05T07:13:05.532Z,100193.40
2022-08-05T07:18:09.786Z,100188.60
2022-08-05T07:23:26.349Z,100188.98
2022-08-05T07:28:32.215Z,100189.38
2022-08-05T07:33:36.984Z,100185.42
2022-08-05T07:38:43.329Z,100183.23
2022-08-05T07:43:47.699Z,100173.63
2022-08-05T07:49:02.030Z,100175.55
2022-08-05T07:54:10.117Z,100173.88
2022-08-05T07:59:13.171Z,100181.27
2022-08-05T08:04:17.097Z,100175.44
2022-08-05T08:09:29.124Z,100181.45
2022-08-05T08:14:32.227Z,100179.09
2022-08-05T08:20:42.498Z,100172.02
2022-08-05T08:25:02.726Z,100174.08
2022-08-05T08:30:29.936Z,100166.90
2022-08-05T08:35:34.972Z,100166.26
2022-08-05T08:40:51.482Z,100162.03
2022-08-05T08:45:56.703Z,100160.73
2022-08-05T08:51:22.350Z,100160.16
2022-08-05T08:56:27.124Z,100144.16
2022-08-05T09:01:31.359Z,100143.98
2022-08-05T09:06:36.279Z,100137.85
2022-08-05T09:11:51.371Z,100134.24
2022-08-05T09:16:56.708Z,100126.59
2022-08-05T09:22:22.505Z,100126.86
2022-08-05T09:28:04.817Z,100120.62
2022-08-05T09:33:04.765Z,100126.04
2022-08-05T09:38:12.199Z,100122.02
2022-08-05T09:43:40.834Z,100117.11
2022-08-05T09:49:07.058Z,100104.09
2022-08-05T09:54:09.395Z,100105.58
2022-08-05T09:59:16.865Z,100109.04
2022-08-05T10:04:29.344Z,100112.71
2022-08-05T10:09:44.941Z,100104.02
2022-08-05T10:14:48.458Z,100096.50
2022-08-05T10:20:03.059Z,100089.98
2022-08-05T10:25:14.373Z,100078.79
2022-08-05T10:31:20.186Z,100075.95
2022-08-05T10:35:44.279Z,100065.08
2022-08-05T10:40:58.015Z,100052.17
2022-08-05T10:46:06.604Z,100060.06
2022-08-05T10:51:21.879Z,100058.33
2022-08-05T10:56:28.991Z,100060.71
2022-08-05T11:01:54.619Z,100057.55
2022-08-05T11:07:11.440Z,100053.27
2022-08-05T11:12:26.517Z,100028.86
2022-08-05T11:18:07.687Z,100024.16
2022-08-05T11:22:59.190Z,100024.52
2022-08-05T11:28:17.095Z,100034.94
2022-08-05T11:33:43.973Z,100026.97
2022-08-05T11:38:55.323Z,100020.86
2022-08-05T11:44:12.750Z,100007.44
2022-08-05T11:49:35.854Z,100009.49
2022-08-05T11:54:41.462Z,100009.23
2022-08-05T11:59:50.431Z,100002.35
2022-08-05T12:04:59.700Z,100004.98
2022-08-05T12:10:09.598Z,99995.62
2022-08-05T12:15:38.399Z,100005.55
2022-08-05T12:20:41.628Z,99997.86
2022-08-05T12:25:53.607Z,99990.20
2022-08-05T12:31:02.440Z,99974.86
2022-08-05T12:36:09.527Z,99972.75
2022-08-05T12:41:14.687Z,99956.75
2022-08-05T12:46:29.122Z,99963.20
2022-08-05T12:52:12.755Z,99968.61
2022-08-05T12:57:01.348Z,99967.95
2022-08-05T13:02:09.882Z,99965.84
2022-08-05T13:07:17.389Z,99951.60
2022-08-05T13:12:57.503Z,99957.64
2022-08-05T13:18:02.127Z,99958.65
2022-08-05T13:23:07.309Z,99944.69
2022-08-05T13:28:10.482Z,99929.98
2022-08-05T13:33:14.288Z,99937.73
2022-08-05T13:38:42.030Z,99928.83
2022-08-05T13:43:54.828Z,99922.45
2022-08-05T13:49:01.005Z,99919.95
2022-08-05T13:54:11.872Z,99897.83
2022-08-05T13:59:19.989Z,99891.49
2022-08-05T14:04:42.427Z,99894.77
2022-08-05T14:09:53.650Z,99887.31
2022-08-05T14:14:56.414Z,99881.36
2022-08-05T14:20:04.502Z,99884.81
2022-08-05T14:25:21.448Z,99890.60
2022-08-05T14:30:26.577Z,99881.73
2022-08-05T14:35:36.224Z,99889.28
2022-08-05T14:40:40.525Z,99875.25
2022-08-05T14:45:47.133Z,99875.48
2022-08-05T14:50:50.335Z,99885.04
2022-08-05T14:55:53.095Z,99883.58
2022-08-05T15:00:58.879Z,99877.34
2022-08-05T15:06:08.014Z,99873.62
2022-08-05T15:11:16.524Z,99878.15
2022-08-05T15:16:19.371Z,99877.48
2022-08-05T15:21:22.240Z,99870.98
2022-08-05T15:26:31.750Z,99869.11
2022-08-05T15:31:35.228Z,99872.27
2022-08-05T15:36:37.953Z,99860.20
2022-08-05T15:41:56.408Z,99859.81
2022-08-05T15:47:01.925Z,99866.90
2022-08-05T15:52:16.554Z,99866.19
2022-08-05T15:57:33.020Z,99862.72
2022-08-05T16:02:38.362Z,99862.95
2022-08-05T16:07:46.634Z,99872.33
2022-08-05T16:12:52.011Z,99879.16
2022-08-05T16:17:58.016Z,99869.95
2022-08-05T16:23:01.153Z,99869.94
2022-08-05T16:28:06.479Z,99860.60
2022-08-05T16:33:12.699Z,99860.55
2022-08-05T16:38:25.031Z,99852.23
2022-08-05T16:43:31.795Z,99852.55
2022-08-05T16:48:37.875Z,99844.75
2022-08-05T16:54:04.809Z,99842.77
2022-08-05T16:59:11.054Z,99840.02
2022-08-05T17:04:18.648Z,99835.87
2022-08-05T17:09:23.132Z,99830.42
2022-08-05T17:14:37.137Z,99833.81
2022-08-05T17:19:43.850Z,99825.92
2022-08-05T17:24:58.235Z,99827.48
2022-08-05T17:30:04.101Z,99824.27
2022-08-05T17:35:07.499Z,99824.39
2022-08-05T17:40:14.510Z,99820.77
2022-08-05T17:45:21.134Z,99818.54
2022-08-05T17:50:29.976Z,99822.40
2022-08-05T17:55:37.416Z,99824.16
2022-08-05T18:00:47.674Z,99830.05
2022-08-05T18:05:54.371Z,99834.71
2022-08-05T18:10:57.182Z,99831.56
2022-08-05T18:15:59.929Z,99836.46
2022-08-05T18:21:04.204Z,99839.33
2022-08-05T18:26:18.035Z,99844.42
2022-08-05T18:31:23.594Z,99846.99
2022-08-05T18:36:28.144Z,99848.16
2022-08-05T18:41:56.901Z,99849.06
2022-08-05T18:46:54.607Z,99850.50
2022-08-05T18:52:17.705Z,99854.70
2022-08-05T18:57:50.137Z,99856.12
2022-08-05T19:02:58.078Z,99850.39
2022-08-05T19:08:12.258Z,99845.19
2022-08-05T19:13:17.037Z,99849.08
2022-08-05T19:18:22.256Z,99844.30
2022-08-05T19:24:07.163Z,99841.98
2022-08-05T19:28:48.531Z,99842.69
2022-08-05T19:33:56.318Z,99840.08
2022-08-05T19:39:00.821Z,99837.89
2022-08-05T19:44:13.507Z,99837.20
2022-08-05T19:49:17.862Z,99837.18
2022-08-05T19:54:25.517Z,99834.93
2022-08-05T19:59:56.268Z,99845.55
2022-08-05T20:04:59.802Z,99841.52
2022-08-05T20:10:11.711Z,99844.14
2022-08-05T20:15:48.124Z,99838.58
2022-08-05T20:20:46.085Z,99834.11
2022-08-05T20:25:49.372Z,99827.79
2022-08-05T20:30:55.222Z,99833.72
2022-08-05T20:35:58.420Z,99842.28
2022-08-05T20:41:04.627Z,99854.17
2022-08-05T20:46:25.036Z,99861.86
2022-08-05T20:51:28.304Z,99862.23
2022-08-05T20:56:34.230Z,99863.14
2022-08-05T21:01:45.823Z,99860.76
2022-08-05T21:06:48.627Z,99861.58
2022-08-05T21:12:09.066Z,99863.29
2022-08-05T21:17:14.078Z,99860.64
2022-08-05T21:22:18.428Z,99860.45
2022-08-05T21:27:24.616Z,99862.19
2022-08-05T21:32:29.263Z,99865.27
2022-08-05T21:37:32.367Z,99874.40
2022-08-05T21:42:44.764Z,99879.16
2022-08-05T21:47:57.164Z,99896.02
2022-08-05T21:53:08.359Z,99909.30
2022-08-05T21:58:20.562Z,99919.45
2022-08-05T22:03:48.984Z,99920.67
2022-08-05T22:08:56.161Z,99930.91
2022-08-05T22:14:32.516Z,99936.08
2022-08-05T22:20:01.036Z,99923.61
2022-08-05T22:25:04.566Z,99932.86
2022-08-05T22:30:14.389Z,99952.30
2022-08-05T22:35:20.107Z,99969.51
2022-08-05T22:40:26.552Z,99970.80
2022-08-05T22:45:33.559Z,99973.16
2022-08-05T22:50:40.041Z,99963.23
2022-08-05T22:55:57.157Z,99970.82
2022-08-05T23:01:02.053Z,99978.67
2022-08-05T23:06:04.849Z,99987.83
2022-08-05T23:11:09.305Z,99976.05
2022-08-05T23:16:12.837Z,99965.98
2022-08-05T23:21:42.408Z,99975.46
2022-08-05T23:26:46.064Z,99967.04
2022-08-05T23:31:50.914Z,99972.92
2022-08-05T23:36:55.393Z,100005.58
2022-08-05T23:41:58.754Z,100006.36
2022-08-05T23:47:02.481Z,100017.91
2022-08-05T23:52:27.617Z,100030.75
2022-08-05T23:57:31.182Z,100018.81
